Time;durP1;ratioP1;P1;durP2;ratioP2;P2;SDS_P1;SDS_P2;PMS_P1;PMS_P2;Temp;Humidity;BMP_temperature;BMP_pressure;BME280_temperature;BME280_humidity;BME280_pressure;Samples;Min_cycle;Max_cycle;Signal;HPM_P1;HPM_P2
2022/10/26 00:00:25;;;;;;;5.50;3.35;;;;;;;;;;4916937;29;20023;-85
2022/10/26 00:02:53;;;;;;;6.47;3.30;;;;;;;;;;4911174;29;20036;-85
2022/10/26 00:05:19;;;;;;;6.55;3.40;;;;;;;;;;4927217;29;20027;-85
2022/10/26 00:07:44;;;;;;;5.28;3.33;;;;;;;;;;4913786;29;20038;-85
2022/10/26 00:10:10;;;;;;;5.93;3.20;;;;;;;;;;4912508;29;20035;-85
2022/10/26 00:12:35;;;;;;;7.45;3.15;;;;;;;;;;4928894;29;20051;-85
2022/10/26 00:15:00;;;;;;;6.05;3.15;;;;;;;;;;4907783;29;20116;-86
2022/10/26 00:17:26;;;;;;;8.60;3.03;;;;;;;;;;4930862;29;20028;-85
2022/10/26 00:19:51;;;;;;;7.93;3.22;;;;;;;;;;4933064;29;20037;-85
2022/10/26 00:22:16;;;;;;;7.30;3.20;;;;;;;;;;4913560;29;20027;-85
2022/10/26 00:24:42;;;;;;;7.32;3.42;;;;;;;;;;4913346;29;20051;-85
2022/10/26 00:27:07;;;;;;;6.35;3.30;;;;;;;;;;4912865;29;20047;-85
2022/10/26 00:29:32;;;;;;;5.35;2.90;;;;;;;;;;4912848;29;20036;-86
2022/10/26 00:31:58;;;;;;;7.82;3.63;;;;;;;;;;4930872;29;20036;-85
2022/10/26 00:34:23;;;;;;;6.05;3.10;;;;;;;;;;4915378;29;20079;-85
2022/10/26 00:36:48;;;;;;;9.52;3.35;;;;;;;;;;4928217;29;20037;-85
2022/10/26 00:39:14;;;;;;;5.00;3.13;;;;;;;;;;4926958;29;20055;-85
2022/10/26 00:41:39;;;;;;;4.65;2.97;;;;;;;;;;4914324;29;20031;-85
2022/10/26 00:44:42;;;;;;;7.65;3.22;;;;;;;;;;4931318;29;20114;-85
2022/10/26 00:47:12;;;;;;;6.32;3.03;;;;;;;;;;4924958;29;20032;-85
2022/10/26 00:49:38;;;;;;;6.80;3.15;;;;;;;;;;4912008;29;20031;-85
2022/10/26 00:52:05;;;;;;;6.10;3.17;;;;;;;;;;4914846;29;20030;-85
2022/10/26 00:54:31;;;;;;;5.45;3.00;;;;;;;;;;4911675;29;20085;-85
2022/10/26 00:56:56;;;;;;;6.60;3.40;;;;;;;;;;4930766;29;20160;-85
2022/10/26 00:59:22;;;;;;;8.43;3.72;;;;;;;;;;4927423;29;20036;-84
2022/10/26 01:01:48;;;;;;;7.80;3.65;;;;;;;;;;4927826;29;20031;-86
2022/10/26 01:04:14;;;;;;;6.35;3.60;;;;;;;;;;4925517;29;20111;-85
2022/10/26 01:06:41;;;;;;;8.07;3.83;;;;;;;;;;4911630;29;20050;-85
2022/10/26 01:09:06;;;;;;;6.45;3.88;;;;;;;;;;4908599;29;20523;-85
2022/10/26 01:11:32;;;;;;;7.00;3.88;;;;;;;;;;4912760;29;20126;-85
2022/10/26 01:13:59;;;;;;;7.15;3.55;;;;;;;;;;4929218;29;20122;-86
2022/10/26 01:16:40;;;;;;;8.40;3.92;;;;;;;;;;4908257;29;20028;-85
2022/10/26 01:19:46;;;;;;;7.40;3.80;;;;;;;;;;4930233;29;20087;-85
2022/10/26 01:22:35;;;;;;;7.32;3.83;;;;;;;;;;4926716;29;20488;-85
2022/10/26 01:25:22;;;;;;;10.32;4.45;;;;;;;;;;4913585;29;20381;-85
2022/10/26 01:27:50;;;;;;;6.78;4.38;;;;;;;;;;4920888;29;20031;-85
2022/10/26 01:30:15;;;;;;;9.88;4.55;;;;;;;;;;4909029;29;20020;-85
2022/10/26 01:33:00;;;;;;;7.40;5.07;;;;;;;;;;4925290;29;20040;-85
2022/10/26 01:35:31;;;;;;;9.00;4.80;;;;;;;;;;4924283;29;20047;-85
2022/10/26 01:38:10;;;;;;;7.25;4.63;;;;;;;;;;4931014;29;20498;-85
2022/10/26 01:40:53;;;;;;;7.93;5.15;;;;;;;;;;4926803;29;20107;-85
2022/10/26 01:43:19;;;;;;;7.13;4.72;;;;;;;;;;4923950;29;20500;-85
2022/10/26 01:45:47;;;;;;;8.75;4.95;;;;;;;;;;4925844;29;20102;-85
2022/10/26 01:48:17;;;;;;;7.85;4.82;;;;;;;;;;4913475;29;20115;-85
2022/10/26 01:50:46;;;;;;;8.60;5.18;;;;;;;;;;4929158;29;20036;-85
2022/10/26 01:53:13;;;;;;;6.95;4.70;;;;;;;;;;4911791;29;20024;-85
2022/10/26 01:55:44;;;;;;;7.30;4.50;;;;;;;;;;4911362;29;20123;-85
2022/10/26 01:58:31;;;;;;;8.52;4.70;;;;;;;;;;4924176;29;20032;-85
2022/10/26 02:01:19;;;;;;;8.85;4.50;;;;;;;;;;4924476;29;20028;-86
2022/10/26 02:04:08;;;;;;;7.65;3.90;;;;;;;;;;4923505;29;20034;-85
2022/10/26 02:06:58;;;;;;;8.30;3.97;;;;;;;;;;4922635;29;20035;-86
2022/10/26 02:09:53;;;;;;;8.15;3.42;;;;;;;;;;4927848;29;20110;-85
2022/10/26 02:12:30;;;;;;;5.53;3.20;;;;;;;;;;4923522;29;20422;-85
2022/10/26 02:15:13;;;;;;;6.10;3.67;;;;;;;;;;4923581;29;20119;-86
2022/10/26 02:17:58;;;;;;;5.60;3.60;;;;;;;;;;4908607;29;20130;-85
2022/10/26 02:20:47;;;;;;;6.05;3.83;;;;;;;;;;4925939;29;20365;-85
2022/10/26 02:23:14;;;;;;;8.45;3.47;;;;;;;;;;4914288;29;20038;-85
2022/10/26 02:25:45;;;;;;;5.65;3.35;;;;;;;;;;4921850;29;20044;-85
2022/10/26 02:28:16;;;;;;;7.35;3.20;;;;;;;;;;4927200;29;20031;-85
2022/10/26 02:30:44;;;;;;;5.57;3.20;;;;;;;;;;4912245;29;20028;-85
2022/10/26 02:33:12;;;;;;;5.60;3.35;;;;;;;;;;4930499;29;20028;-86
2022/10/26 02:35:40;;;;;;;6.47;3.38;;;;;;;;;;4924332;29;20114;-85
2022/10/26 02:38:11;;;;;;;5.05;2.88;;;;;;;;;;4914746;29;20480;-85
2022/10/26 02:40:37;;;;;;;6.20;3.13;;;;;;;;;;4924637;29;20098;-85
2022/10/26 02:43:11;;;;;;;6.47;3.05;;;;;;;;;;4914684;29;21334;-85
2022/10/26 02:45:43;;;;;;;6.38;3.15;;;;;;;;;;4912143;29;20027;-85
2022/10/26 02:48:09;;;;;;;6.88;3.13;;;;;;;;;;4906185;29;20036;-85
2022/10/26 02:50:55;;;;;;;5.20;3.13;;;;;;;;;;4923479;29;20624;-85
2022/10/26 02:54:18;;;;;;;7.35;3.17;;;;;;;;;;4888229;29;20452;-85
2022/10/26 02:57:01;;;;;;;5.90;3.50;;;;;;;;;;4851397;29;20491;-85
2022/10/26 02:59:31;;;;;;;5.57;3.38;;;;;;;;;;4928264;29;20166;-85
2022/10/26 03:01:57;;;;;;;5.15;2.92;;;;;;;;;;4931398;29;20035;-85
2022/10/26 03:04:33;;;;;;;6.90;3.20;;;;;;;;;;4911047;29;20473;-85
2022/10/26 03:06:59;;;;;;;5.78;3.28;;;;;;;;;;4911716;29;20027;-85
2022/10/26 03:09:25;;;;;;;6.15;3.13;;;;;;;;;;4931970;29;20051;-85
2022/10/26 03:11:50;;;;;;;5.05;3.00;;;;;;;;;;4915978;29;20027;-85
2022/10/26 03:14:16;;;;;;;7.63;3.35;;;;;;;;;;4917940;29;20035;-85
2022/10/26 03:16:41;;;;;;;7.65;3.20;;;;;;;;;;4933250;29;20396;-85
2022/10/26 03:19:07;;;;;;;5.72;3.28;;;;;;;;;;4932122;29;20170;-86
2022/10/26 03:21:32;;;;;;;6.25;3.13;;;;;;;;;;4928234;29;20094;-85
2022/10/26 03:23:58;;;;;;;7.00;3.58;;;;;;;;;;4915529;29;20028;-85
2022/10/26 03:26:23;;;;;;;5.82;3.08;;;;;;;;;;4915174;29;20112;-85
2022/10/26 03:28:48;;;;;;;7.43;3.13;;;;;;;;;;4915969;29;20031;-85
2022/10/26 03:31:14;;;;;;;5.60;2.90;;;;;;;;;;4914524;29;20559;-85
2022/10/26 03:33:39;;;;;;;4.05;2.72;;;;;;;;;;4916511;29;20040;-85
2022/10/26 03:36:05;;;;;;;6.25;3.28;;;;;;;;;;4914305;29;20086;-85
2022/10/26 03:38:30;;;;;;;7.43;3.05;;;;;;;;;;4919034;29;20407;-85
2022/10/26 03:40:55;;;;;;;5.47;3.15;;;;;;;;;;4915552;29;20488;-85
2022/10/26 03:43:21;;;;;;;5.32;3.13;;;;;;;;;;4915972;29;20024;-85
2022/10/26 03:45:46;;;;;;;7.40;3.38;;;;;;;;;;4916411;29;20055;-85
2022/10/26 03:48:13;;;;;;;6.38;3.03;;;;;;;;;;4916884;29;20119;-85
2022/10/26 03:50:38;;;;;;;5.30;3.10;;;;;;;;;;4914653;29;20082;-85
2022/10/26 03:53:04;;;;;;;7.93;3.10;;;;;;;;;;4916737;29;20035;-86
2022/10/26 03:55:29;;;;;;;5.82;2.92;;;;;;;;;;4916504;29;20035;-85
2022/10/26 03:57:55;;;;;;;5.70;3.00;;;;;;;;;;4933759;29;20059;-85
2022/10/26 04:00:20;;;;;;;5.53;3.13;;;;;;;;;;4914161;29;20039;-85
2022/10/26 04:02:54;;;;;;;5.05;3.08;;;;;;;;;;4916786;29;20046;-85
2022/10/26 04:05:19;;;;;;;5.10;2.88;;;;;;;;;;4927518;29;20433;-85
2022/10/26 04:07:54;;;;;;;6.55;3.20;;;;;;;;;;4911665;29;20024;-85
2022/10/26 04:10:19;;;;;;;5.20;3.08;;;;;;;;;;4928490;29;20067;-85
2022/10/26 04:12:45;;;;;;;7.70;3.03;;;;;;;;;;4915289;29;20063;-85
2022/10/26 04:15:10;;;;;;;5.35;3.20;;;;;;;;;;4914496;29;20028;-85
2022/10/26 04:17:36;;;;;;;6.05;2.72;;;;;;;;;;4926988;29;20035;-85
2022/10/26 04:20:01;;;;;;;8.15;3.22;;;;;;;;;;4911656;29;20027;-85
2022/10/26 04:22:26;;;;;;;5.75;3.13;;;;;;;;;;4931133;29;20111;-85
2022/10/26 04:24:52;;;;;;;7.32;2.78;;;;;;;;;;4930227;29;20044;-85
2022/10/26 04:27:17;;;;;;;6.35;3.03;;;;;;;;;;4912313;29;20399;-85
2022/10/26 04:29:43;;;;;;;5.80;3.05;;;;;;;;;;4913285;29;20039;-85
2022/10/26 04:32:08;;;;;;;7.25;3.28;;;;;;;;;;4915335;29;20038;-85
2022/10/26 04:34:33;;;;;;;8.55;3.50;;;;;;;;;;4915026;29;20028;-85
2022/10/26 04:36:59;;;;;;;7.50;3.05;;;;;;;;;;4928953;29;20024;-85
2022/10/26 04:39:24;;;;;;;7.15;3.20;;;;;;;;;;4925023;29;20027;-85
2022/10/26 04:41:50;;;;;;;6.22;3.17;;;;;;;;;;4928703;29;20027;-85
2022/10/26 04:44:15;;;;;;;6.47;3.05;;;;;;;;;;4930154;29;20071;-85
2022/10/26 04:46:40;;;;;;;6.78;3.20;;;;;;;;;;4925392;29;20035;-85
2022/10/26 04:49:06;;;;;;;5.10;3.10;;;;;;;;;;4926760;29;20048;-85
2022/10/26 04:51:31;;;;;;;6.72;2.92;;;;;;;;;;4926436;29;20028;-85
2022/10/26 04:53:57;;;;;;;5.50;3.03;;;;;;;;;;4927338;29;20020;-85
2022/10/26 04:56:22;;;;;;;5.90;3.00;;;;;;;;;;4908411;29;20103;-85
2022/10/26 04:58:48;;;;;;;5.88;3.55;;;;;;;;;;4924853;29;20032;-85
2022/10/26 05:01:13;;;;;;;5.75;3.20;;;;;;;;;;4907312;29;20038;-85
2022/10/26 05:03:38;;;;;;;6.13;3.33;;;;;;;;;;4929343;29;20384;-85
2022/10/26 05:06:04;;;;;;;5.07;2.85;;;;;;;;;;4911952;29;20024;-85
2022/10/26 05:08:29;;;;;;;7.47;3.85;;;;;;;;;;4913404;29;20093;-85
2022/10/26 05:10:55;;;;;;;5.97;3.28;;;;;;;;;;4911957;29;20065;-85
2022/10/26 05:13:21;;;;;;;6.97;3.17;;;;;;;;;;4912898;29;20025;-85
2022/10/26 05:15:46;;;;;;;7.55;3.25;;;;;;;;;;4912389;29;20031;-85
2022/10/26 05:18:11;;;;;;;5.70;2.92;;;;;;;;;;4916570;29;20027;-85
2022/10/26 05:20:37;;;;;;;10.40;3.47;;;;;;;;;;4912354;29;20480;-85
2022/10/26 05:23:05;;;;;;;8.65;3.28;;;;;;;;;;4912689;29;20039;-84
2022/10/26 05:25:33;;;;;;;6.60;3.20;;;;;;;;;;4925718;29;20059;-85
2022/10/26 05:27:59;;;;;;;5.88;2.97;;;;;;;;;;4924208;29;20031;-85
2022/10/26 05:30:25;;;;;;;5.40;3.00;;;;;;;;;;4912148;29;20409;-85
2022/10/26 05:32:54;;;;;;;5.10;3.05;;;;;;;;;;4929510;29;20086;-85
2022/10/26 05:35:20;;;;;;;5.57;2.85;;;;;;;;;;4910486;29;20028;-85
2022/10/26 05:37:45;;;;;;;4.70;3.05;;;;;;;;;;4912852;29;20374;-85
2022/10/26 05:40:11;;;;;;;6.63;3.00;;;;;;;;;;4911082;29;20622;-85
2022/10/26 05:42:36;;;;;;;4.55;2.83;;;;;;;;;;4913545;29;20028;-84
2022/10/26 05:45:02;;;;;;;5.32;2.72;;;;;;;;;;4907583;29;20036;-85
2022/10/26 05:47:27;;;;;;;6.88;3.10;;;;;;;;;;4907882;29;20024;-85
2022/10/26 05:49:52;;;;;;;8.00;3.13;;;;;;;;;;4906452;29;20030;-85
2022/10/26 05:52:18;;;;;;;6.03;2.88;;;;;;;;;;4923735;29;20067;-85
2022/10/26 05:54:43;;;;;;;4.43;2.80;;;;;;;;;;4911966;29;20506;-85
2022/10/26 05:57:12;;;;;;;6.20;3.03;;;;;;;;;;4911267;29;20127;-85
2022/10/26 05:59:38;;;;;;;5.13;2.78;;;;;;;;;;4927531;29;20035;-85
2022/10/26 06:02:24;;;;;;;6.43;2.92;;;;;;;;;;4906278;29;20027;-85
2022/10/26 06:04:51;;;;;;;5.80;2.63;;;;;;;;;;4904044;29;20058;-85
2022/10/26 06:07:20;;;;;;;7.50;2.92;;;;;;;;;;4926983;29;20036;-85
2022/10/26 06:09:46;;;;;;;4.85;2.75;;;;;;;;;;4927492;29;20032;-85
2022/10/26 06:12:12;;;;;;;4.75;2.90;;;;;;;;;;4907051;29;20023;-85
2022/10/26 06:14:38;;;;;;;6.53;2.88;;;;;;;;;;4930167;29;20182;-85
2022/10/26 06:17:28;;;;;;;5.00;3.00;;;;;;;;;;4927078;29;20047;-85
2022/10/26 06:20:15;;;;;;;5.82;3.13;;;;;;;;;;4926555;29;20098;-85
2022/10/26 06:22:50;;;;;;;5.70;2.85;;;;;;;;;;4916422;29;20162;-85
2022/10/26 06:25:28;;;;;;;4.30;2.92;;;;;;;;;;4921307;29;20044;-85
2022/10/26 06:28:13;;;;;;;5.82;2.80;;;;;;;;;;4904111;29;20485;-85
2022/10/26 06:30:40;;;;;;;7.85;2.88;;;;;;;;;;4914790;29;20499;-85
2022/10/26 06:33:09;;;;;;;5.50;3.08;;;;;;;;;;4900019;29;20044;-85
2022/10/26 06:35:39;;;;;;;6.25;3.00;;;;;;;;;;4911321;29;20499;-86
2022/10/26 06:38:15;;;;;;;5.60;3.28;;;;;;;;;;4913565;29;20183;-85
2022/10/26 06:40:43;;;;;;;6.75;2.90;;;;;;;;;;4911549;29;20727;-85
2022/10/26 06:43:21;;;;;;;5.45;2.80;;;;;;;;;;4910248;29;20773;-85
2022/10/26 06:45:53;;;;;;;4.65;2.58;;;;;;;;;;4919871;29;20072;-85
2022/10/26 06:48:24;;;;;;;5.05;2.85;;;;;;;;;;4910531;29;20036;-85
2022/10/26 06:50:51;;;;;;;3.95;2.50;;;;;;;;;;4911716;29;20111;-85
2022/10/26 06:53:32;;;;;;;5.32;2.65;;;;;;;;;;4916035;29;20040;-85
2022/10/26 06:55:58;;;;;;;4.63;2.42;;;;;;;;;;4916077;29;20038;-85
2022/10/26 06:58:28;;;;;;;7.57;3.10;;;;;;;;;;4913807;29;20028;-85
2022/10/26 07:00:54;;;;;;;5.93;3.13;;;;;;;;;;4906375;29;20036;-85
2022/10/26 07:03:19;;;;;;;5.10;2.60;;;;;;;;;;4923265;29;20030;-85
2022/10/26 07:05:45;;;;;;;4.70;2.72;;;;;;;;;;4924221;29;20122;-84
2022/10/26 07:08:11;;;;;;;4.30;2.80;;;;;;;;;;4908602;29;20020;-85
2022/10/26 07:10:38;;;;;;;4.30;2.72;;;;;;;;;;4912600;29;20043;-84
2022/10/26 07:13:08;;;;;;;7.47;3.17;;;;;;;;;;4912726;29;20028;-85
2022/10/26 07:15:34;;;;;;;4.65;2.50;;;;;;;;;;4913148;29;20046;-85
2022/10/26 07:18:02;;;;;;;6.43;2.80;;;;;;;;;;4912885;29;20032;-85
2022/10/26 07:20:27;;;;;;;6.40;2.67;;;;;;;;;;4913282;29;20032;-85
2022/10/26 07:22:54;;;;;;;6.45;2.70;;;;;;;;;;4911289;29;20433;-85
2022/10/26 07:25:21;;;;;;;7.80;3.08;;;;;;;;;;4909858;29;20112;-84
2022/10/26 07:27:46;;;;;;;5.80;2.65;;;;;;;;;;4916225;29;20023;-85
2022/10/26 07:30:12;;;;;;;4.00;2.55;;;;;;;;;;4909832;29;20028;-85
2022/10/26 07:32:37;;;;;;;4.50;2.60;;;;;;;;;;4911704;29;20024;-85
2022/10/26 07:35:03;;;;;;;7.95;2.80;;;;;;;;;;4913232;29;20515;-84
2022/10/26 07:37:29;;;;;;;6.38;2.60;;;;;;;;;;4908352;29;20123;-85
2022/10/26 07:39:54;;;;;;;5.45;2.50;;;;;;;;;;4910844;29;20057;-85
2022/10/26 07:42:20;;;;;;;4.68;2.70;;;;;;;;;;4912203;29;20107;-85
2022/10/26 07:44:45;;;;;;;5.50;2.63;;;;;;;;;;4920087;29;20028;-85
2022/10/26 07:47:11;;;;;;;6.07;2.78;;;;;;;;;;4912264;29;20046;-85
2022/10/26 07:49:36;;;;;;;4.07;2.40;;;;;;;;;;4915259;29;20044;-85
2022/10/26 07:52:01;;;;;;;6.60;2.75;;;;;;;;;;4909883;29;20032;-85
2022/10/26 07:54:27;;;;;;;6.53;2.97;;;;;;;;;;4903031;29;20024;-85
2022/10/26 07:56:52;;;;;;;5.45;2.50;;;;;;;;;;4904409;29;20130;-85
2022/10/26 07:59:18;;;;;;;5.72;2.58;;;;;;;;;;4922896;29;20029;-85
2022/10/26 08:01:44;;;;;;;6.85;3.03;;;;;;;;;;4909422;29;20048;-85
2022/10/26 08:04:09;;;;;;;6.50;2.60;;;;;;;;;;4917826;29;20032;-84
2022/10/26 08:06:35;;;;;;;4.63;2.60;;;;;;;;;;4910199;29;20039;-84
2022/10/26 08:09:00;;;;;;;5.60;2.50;;;;;;;;;;4910496;29;20092;-84
2022/10/26 08:11:26;;;;;;;5.72;2.58;;;;;;;;;;4908103;29;20036;-84
2022/10/26 08:13:53;;;;;;;5.15;2.60;;;;;;;;;;4906990;29;20035;-84
2022/10/26 08:16:18;;;;;;;6.22;2.67;;;;;;;;;;4909990;29;20036;-84
2022/10/26 08:18:49;;;;;;;5.15;2.80;;;;;;;;;;4903765;29;20063;-85
2022/10/26 08:21:14;;;;;;;5.82;2.78;;;;;;;;;;4920249;29;20033;-85
2022/10/26 08:23:40;;;;;;;4.47;2.70;;;;;;;;;;4906812;29;20032;-85
2022/10/26 08:26:07;;;;;;;4.75;2.80;;;;;;;;;;4921501;29;20139;-83
2022/10/26 08:28:32;;;;;;;4.55;2.78;;;;;;;;;;4922834;29;20388;-84
2022/10/26 08:30:58;;;;;;;8.70;2.88;;;;;;;;;;4907224;29;20020;-85
2022/10/26 08:33:24;;;;;;;5.20;3.28;;;;;;;;;;4906828;29;20036;-84
2022/10/26 08:36:02;;;;;;;5.75;2.78;;;;;;;;;;4909400;29;20445;-84
2022/10/26 08:38:28;;;;;;;6.15;3.10;;;;;;;;;;4906344;29;20040;-84
2022/10/26 08:40:56;;;;;;;6.75;3.10;;;;;;;;;;4913661;29;20047;-85
2022/10/26 08:43:33;;;;;;;5.30;3.10;;;;;;;;;;4911803;29;20028;-84
2022/10/26 08:46:08;;;;;;;5.45;2.80;;;;;;;;;;4927032;29;20519;-84
2022/10/26 08:48:38;;;;;;;6.18;3.05;;;;;;;;;;4912629;29;20131;-83
2022/10/26 08:51:17;;;;;;;4.40;2.63;;;;;;;;;;4920455;29;20046;-84
2022/10/26 08:53:50;;;;;;;5.82;2.88;;;;;;;;;;4910630;29;20793;-83
2022/10/26 08:56:39;;;;;;;6.20;3.00;;;;;;;;;;4921165;29;20031;-84
2022/10/26 08:59:33;;;;;;;5.05;2.85;;;;;;;;;;4898798;29;21448;-84
2022/10/26 09:02:00;;;;;;;5.88;2.75;;;;;;;;;;4909364;29;20039;-83
2022/10/26 09:04:28;;;;;;;5.85;2.95;;;;;;;;;;4924321;29;20550;-84
2022/10/26 09:07:18;;;;;;;5.18;2.75;;;;;;;;;;4910975;29;20032;-84
2022/10/26 09:09:56;;;;;;;4.97;2.70;;;;;;;;;;4922312;29;20500;-84
2022/10/26 09:12:56;;;;;;;4.47;2.50;;;;;;;;;;4924885;29;20043;-84
2022/10/26 09:15:36;;;;;;;5.47;2.70;;;;;;;;;;4909571;29;20047;-84
2022/10/26 09:18:26;;;;;;;6.63;2.50;;;;;;;;;;4909446;29;20386;-84
2022/10/26 09:21:09;;;;;;;4.88;2.53;;;;;;;;;;4926967;29;20043;-83
2022/10/26 09:23:52;;;;;;;4.85;2.50;;;;;;;;;;4909676;29;20036;-83
2022/10/26 09:26:54;;;;;;;8.48;2.97;;;;;;;;;;4916944;29;20522;-84
2022/10/26 09:29:25;;;;;;;6.32;2.25;;;;;;;;;;4910571;29;20039;-84
2022/10/26 09:31:53;;;;;;;5.75;2.72;;;;;;;;;;4902214;29;20401;-84
2022/10/26 09:34:26;;;;;;;6.25;2.60;;;;;;;;;;4906960;29;20068;-83
2022/10/26 09:36:53;;;;;;;;;;;;;;;;;;4907042;29;20560;-83
2022/10/26 09:39:22;;;;;;;4.05;2.40;;;;;;;;;;4908961;29;19919;-83
2022/10/26 09:42:05;;;;;;;5.22;2.38;;;;;;;;;;4909713;29;20449;-84
2022/10/26 09:44:38;;;;;;;5.07;2.42;;;;;;;;;;4908398;29;20028;-84
2022/10/26 09:47:26;;;;;;;5.32;2.55;;;;;;;;;;4906591;29;20095;-84
2022/10/26 09:50:01;;;;;;;4.38;2.15;;;;;;;;;;4905943;29;20456;-83
2022/10/26 09:52:26;;;;;;;7.38;2.28;;;;;;;;;;4905116;29;20035;-84
2022/10/26 09:54:51;;;;;;;7.07;2.70;;;;;;;;;;4904172;29;20023;-84
2022/10/26 09:57:19;;;;;;;4.53;2.35;;;;;;;;;;4907960;29;20092;-84
2022/10/26 09:59:50;;;;;;;8.43;2.50;;;;;;;;;;4908376;29;20059;-84
2022/10/26 10:02:42;;;;;;;5.95;2.58;;;;;;;;;;4904843;29;20024;-84
2022/10/26 10:05:32;;;;;;;8.95;2.20;;;;;;;;;;4898942;29;20075;-83
2022/10/26 10:08:17;;;;;;;5.88;2.35;;;;;;;;;;4898392;29;20040;-83
2022/10/26 10:11:06;;;;;;;5.68;2.22;;;;;;;;;;4919258;29;20028;-83
2022/10/26 10:13:35;;;;;;;5.47;2.10;;;;;;;;;;4894388;29;20036;-84
2022/10/26 10:16:09;;;;;;;5.15;2.08;;;;;;;;;;4905834;29;20514;-84
2022/10/26 10:18:35;;;;;;;4.50;2.20;;;;;;;;;;4895041;29;20039;-84
2022/10/26 10:21:01;;;;;;;5.18;2.20;;;;;;;;;;4916653;29;20034;-84
2022/10/26 10:23:33;;;;;;;6.40;2.17;;;;;;;;;;4898547;29;20024;-84
2022/10/26 10:26:02;;;;;;;9.88;2.03;;;;;;;;;;4911432;29;20044;-84
2022/10/26 10:28:28;;;;;;;4.53;1.98;;;;;;;;;;4908861;29;20326;-84
2022/10/26 10:31:05;;;;;;;5.10;2.13;;;;;;;;;;4903976;29;20511;-84
2022/10/26 10:33:40;;;;;;;8.02;2.05;;;;;;;;;;4905192;29;20151;-84
2022/10/26 10:36:12;;;;;;;5.85;1.88;;;;;;;;;;4897605;29;20058;-84
2022/10/26 10:38:49;;;;;;;3.95;2.13;;;;;;;;;;4919932;29;20393;-84
2022/10/26 10:41:28;;;;;;;4.88;1.90;;;;;;;;;;4916877;29;20036;-84
2022/10/26 10:44:26;;;;;;;3.45;1.65;;;;;;;;;;4916222;29;20054;-84
2022/10/26 10:47:03;;;;;;;7.80;2.30;;;;;;;;;;4917393;29;20516;-84
2022/10/26 10:49:29;;;;;;;6.95;2.28;;;;;;;;;;4916927;29;20036;-84
2022/10/26 10:51:56;;;;;;;5.18;2.13;;;;;;;;;;4899622;29;20047;-84
2022/10/26 10:54:31;;;;;;;4.88;2.22;;;;;;;;;;4895272;29;20112;-84
2022/10/26 10:57:02;;;;;;;6.07;2.08;;;;;;;;;;4901813;29;20596;-84
2022/10/26 10:59:43;;;;;;;6.13;2.13;;;;;;;;;;4919522;29;20083;-83
2022/10/26 11:02:33;;;;;;;4.28;1.90;;;;;;;;;;4904032;29;20032;-83
2022/10/26 11:05:17;;;;;;;7.38;2.15;;;;;;;;;;4914990;29;20123;-84
2022/10/26 11:08:02;;;;;;;5.13;2.40;;;;;;;;;;4920958;29;20036;-84
2022/10/26 11:10:35;;;;;;;5.95;2.33;;;;;;;;;;4912981;29;20039;-84
2022/10/26 11:13:15;;;;;;;7.47;2.40;;;;;;;;;;4896724;29;20032;-84
2022/10/26 11:15:44;;;;;;;7.35;2.78;;;;;;;;;;4896481;29;20033;-83
2022/10/26 11:18:29;;;;;;;6.38;2.33;;;;;;;;;;4898424;29;21192;-84
2022/10/26 11:21:05;;;;;;;5.32;2.20;;;;;;;;;;4909575;29;20042;-84
2022/10/26 11:23:42;;;;;;;6.30;2.22;;;;;;;;;;4910598;28;20436;-84
2022/10/26 11:26:16;;;;;;;4.82;2.45;;;;;;;;;;4899523;29;20592;-84
2022/10/26 11:28:54;;;;;;;6.60;2.78;;;;;;;;;;4921240;29;20051;-84
2022/10/26 11:31:38;;;;;;;5.32;2.65;;;;;;;;;;4891986;29;20544;-84
2022/10/26 11:34:20;;;;;;;5.65;2.80;;;;;;;;;;4913802;29;20472;-84
2022/10/26 11:36:51;;;;;;;5.03;2.47;;;;;;;;;;4911840;29;20032;-83
2022/10/26 11:39:37;;;;;;;7.75;3.03;;;;;;;;;;4897545;29;20024;-84
2022/10/26 11:42:43;;;;;;;5.00;3.40;;;;;;;;;;4908971;28;20032;-84
2022/10/26 11:45:16;;;;;;;7.90;3.38;;;;;;;;;;4898186;29;20031;-83
2022/10/26 11:47:51;;;;;;;5.88;3.50;;;;;;;;;;4904269;29;20115;-84
2022/10/26 11:50:42;;;;;;;5.55;3.90;;;;;;;;;;4905293;29;20060;-84
2022/10/26 11:53:13;;;;;;;6.57;4.15;;;;;;;;;;4896713;29;20036;-84
2022/10/26 11:55:40;;;;;;;5.80;4.22;;;;;;;;;;4914883;29;22529;-84
2022/10/26 11:58:09;;;;;;;7.13;4.55;;;;;;;;;;4902650;29;20032;-84
2022/10/26 12:00:46;;;;;;;6.97;4.63;;;;;;;;;;4901933;29;20032;-84
2022/10/26 12:03:17;;;;;;;5.55;4.95;;;;;;;;;;4901868;29;20043;-83
2022/10/26 12:05:49;;;;;;;7.60;4.93;;;;;;;;;;4896753;29;20062;-84
2022/10/26 12:08:32;;;;;;;5.80;5.10;;;;;;;;;;4918829;29;20489;-83
2022/10/26 12:11:36;;;;;;;6.47;5.43;;;;;;;;;;4899330;29;20039;-83
2022/10/26 12:14:28;;;;;;;6.20;5.47;;;;;;;;;;4897766;29;20044;-84
2022/10/26 12:17:02;;;;;;;6.45;5.45;;;;;;;;;;4902067;29;20329;-83
2022/10/26 12:19:51;;;;;;;7.70;5.28;;;;;;;;;;4917790;29;20031;-84
2022/10/26 12:22:19;;;;;;;5.75;5.15;;;;;;;;;;4910738;29;20127;-84
2022/10/26 12:24:46;;;;;;;6.40;5.18;;;;;;;;;;4900855;29;20051;-80
2022/10/26 12:27:32;;;;;;;10.63;5.53;;;;;;;;;;4898374;29;20104;-80
2022/10/26 12:30:29;;;;;;;8.75;5.70;;;;;;;;;;4898294;29;20854;-80
2022/10/26 12:33:16;;;;;;;6.95;5.25;;;;;;;;;;4894743;29;20090;-80
2022/10/26 12:35:43;;;;;;;7.90;5.55;;;;;;;;;;4906260;28;20043;-80
2022/10/26 12:38:20;;;;;;;8.13;5.72;;;;;;;;;;4912405;29;20036;-80
2022/10/26 12:40:46;;;;;;;5.95;5.32;;;;;;;;;;4911306;29;20501;-80
2022/10/26 12:43:14;;;;;;;7.53;5.65;;;;;;;;;;4904359;29;20024;-79
2022/10/26 12:45:41;;;;;;;6.57;5.40;;;;;;;;;;4914292;29;20032;-81
2022/10/26 12:48:24;;;;;;;6.25;4.82;;;;;;;;;;4907262;29;20036;-81
2022/10/26 12:50:51;;;;;;;6.07;4.93;;;;;;;;;;4917960;29;20039;-82
2022/10/26 12:53:21;;;;;;;7.05;5.25;;;;;;;;;;4903958;29;20036;-80
2022/10/26 12:55:55;;;;;;;8.18;4.63;;;;;;;;;;4905757;29;20400;-81
2022/10/26 12:58:57;;;;;;;7.78;4.70;;;;;;;;;;4910394;29;20074;-81
2022/10/26 13:02:00;;;;;;;5.93;3.97;;;;;;;;;;4901133;29;20067;-82
2022/10/26 13:04:55;;;;;;;5.97;4.05;;;;;;;;;;4904649;29;20087;-81
2022/10/26 13:07:23;;;;;;;5.35;4.80;;;;;;;;;;4908438;29;20499;-80
2022/10/26 13:10:11;;;;;;;5.97;4.70;;;;;;;;;;4911441;29;20031;-81
2022/10/26 13:12:47;;;;;;;7.28;4.50;;;;;;;;;;4925877;29;20028;-81
2022/10/26 13:15:22;;;;;;;7.60;4.32;;;;;;;;;;4907458;29;20110;-80
2022/10/26 13:18:01;;;;;;;5.95;3.50;;;;;;;;;;4928677;29;20040;-81
2022/10/26 13:20:29;;;;;;;6.03;3.10;;;;;;;;;;4911446;29;20368;-81
2022/10/26 13:22:54;;;;;;;5.28;2.85;;;;;;;;;;4909685;29;20513;-81
2022/10/26 13:25:28;;;;;;;6.03;3.40;;;;;;;;;;4918587;29;20051;-81
2022/10/26 13:28:31;;;;;;;4.18;3.00;;;;;;;;;;4923512;29;20039;-81
2022/10/26 13:30:57;;;;;;;7.05;2.90;;;;;;;;;;4926612;29;20115;-81
2022/10/26 13:33:29;;;;;;;4.00;2.20;;;;;;;;;;4927903;29;20068;-81
2022/10/26 13:35:57;;;;;;;3.87;2.27;;;;;;;;;;4930125;29;20650;-81
2022/10/26 13:38:28;;;;;;;4.93;2.10;;;;;;;;;;4931886;29;20357;-81
2022/10/26 13:41:04;;;;;;;3.33;1.75;;;;;;;;;;4912718;29;20038;-81
2022/10/26 13:43:30;;;;;;;3.90;1.70;;;;;;;;;;4907316;29;20043;-77
2022/10/26 13:46:00;;;;;;;4.53;1.60;;;;;;;;;;4924203;29;20032;-77
2022/10/26 13:48:40;;;;;;;4.13;1.60;;;;;;;;;;4925079;29;20526;-77
2022/10/26 13:51:19;;;;;;;3.78;1.75;;;;;;;;;;4922082;29;20087;-78
2022/10/26 13:54:00;;;;;;;2.05;1.10;;;;;;;;;;4919206;29;20046;-78
2022/10/26 13:56:38;;;;;;;4.97;1.80;;;;;;;;;;4920546;29;20079;-77
2022/10/26 13:59:09;;;;;;;5.05;1.40;;;;;;;;;;4923998;29;20737;-78
2022/10/26 14:01:35;;;;;;;2.97;1.58;;;;;;;;;;4926376;29;20115;-77
2022/10/26 14:04:24;;;;;;;3.00;1.40;;;;;;;;;;4926078;29;20114;-77
2022/10/26 14:06:51;;;;;;;4.68;1.50;;;;;;;;;;4920518;29;20118;-79
2022/10/26 14:09:18;;;;;;;5.53;1.38;;;;;;;;;;4921737;29;20034;-78
2022/10/26 14:11:53;;;;;;;4.07;1.40;;;;;;;;;;4923190;29;20035;-78
2022/10/26 14:14:29;;;;;;;2.35;1.30;;;;;;;;;;4922434;29;20070;-78
2022/10/26 14:16:55;;;;;;;3.47;1.33;;;;;;;;;;4923939;29;20035;-78
2022/10/26 14:19:35;;;;;;;2.42;1.30;;;;;;;;;;4911478;29;20035;-78
2022/10/26 14:22:01;;;;;;;5.22;1.40;;;;;;;;;;4917335;29;20047;-79
2022/10/26 14:24:32;;;;;;;2.42;1.00;;;;;;;;;;4916738;29;20040;-78
2022/10/26 14:26:58;;;;;;;3.22;1.10;;;;;;;;;;4904499;29;20461;-78
2022/10/26 14:29:26;;;;;;;2.63;1.00;;;;;;;;;;4905224;29;20032;-78
2022/10/26 14:31:53;;;;;;;2.65;1.20;;;;;;;;;;4922927;29;20039;-78
2022/10/26 14:34:19;;;;;;;4.57;1.33;;;;;;;;;;4920967;29;20557;-78
2022/10/26 14:36:49;;;;;;;3.63;1.60;;;;;;;;;;4920699;29;20035;-78
2022/10/26 14:39:29;;;;;;;4.82;1.40;;;;;;;;;;4919509;29;20039;-79
2022/10/26 14:41:55;;;;;;;5.80;1.10;;;;;;;;;;4918274;29;20464;-79
2022/10/26 14:44:23;;;;;;;2.90;1.00;;;;;;;;;;4911523;29;20784;-78
2022/10/26 14:46:49;;;;;;;3.88;1.40;;;;;;;;;;4913319;29;20032;-78
2022/10/26 14:49:23;;;;;;;3.38;1.10;;;;;;;;;;4912660;29;20043;-78
2022/10/26 14:51:56;;;;;;;4.88;1.50;;;;;;;;;;4921630;29;20035;-78
2022/10/26 14:54:24;;;;;;;3.70;1.10;;;;;;;;;;4901357;29;20031;-77
2022/10/26 14:56:50;;;;;;;3.75;1.15;;;;;;;;;;4922975;29;20055;-78
2022/10/26 14:59:24;;;;;;;5.25;1.08;;;;;;;;;;4927020;29;20040;-78
2022/10/26 15:02:08;;;;;;;3.80;1.33;;;;;;;;;;4922028;29;20106;-78
2022/10/26 15:04:36;;;;;;;3.50;1.10;;;;;;;;;;4921361;29;20047;-78
2022/10/26 15:07:15;;;;;;;4.22;1.10;;;;;;;;;;4923215;29;20027;-78
2022/10/26 15:09:44;;;;;;;2.97;1.17;;;;;;;;;;4921625;29;20062;-78
2022/10/26 15:12:25;;;;;;;2.28;1.10;;;;;;;;;;4921835;29;20047;-78